Erzurum International Airport Erzurum TR
ICAO: LTCE
IATA: ERZ
Category: Large
Scheduled Services: Yes

Elevation: 5763 ft
TransAlt. 15000 ft.

Airport Communications:
APP:118.1
GND:121.95
TWR:118.1

LTCE Zoom In..

If you have problems with the map follow the link
https://www.worldairports.se/pages/airport.php?
ICAO=LTCE

Runways:

(A) RW 08L length 12500 ft width 148 ft
ILS 110.70 / hdg 83

(B) RW 08R length 12500 ft width 98 ft
---- / hdg 83

(C) RW 26L length 12500 ft width 98 ft
---- / hdg 263

(D) RW 26R length 12500 ft width 148 ft
ILS 110.50 / hdg 263

Location; LTCE
Day. 18 / Time. 04.20 Zulu
* QNH: 1017
* Temperature: 14° c. 57.2°f.
* Wind from: VRB° Speed 02 kn.
Dewpoint: 11° c.
Visibility: 10 km or more,
No clouds below 1,500 m.
No cumulonimbus, and no significant weather
fenomena in the aerodrome or its vicinity.
No significant changes expected in the near future.

LTCE 180420Z VRB02KT CAVOK 14/11 Q1017 NOSIG


Wind From VRB°
Speed 02 kn.

 
 
jpsmedia.com for Web Design worldairports.se 2019   terms of use